createdAt,value
2018-12-13T00:00:18.844Z,13.23
2018-12-13T00:02:49.136Z,14.27
2018-12-13T00:05:19.222Z,11.53
2018-12-13T00:07:49.500Z,14.17
2018-12-13T00:10:19.488Z,12.10
2018-12-13T00:12:49.372Z,14.33
2018-12-13T00:15:23.645Z,15.43
2018-12-13T00:17:54.657Z,12.30
2018-12-13T00:20:24.673Z,15.93
2018-12-13T00:22:54.620Z,16.27
2018-12-13T00:25:24.573Z,14.60
2018-12-13T00:27:54.422Z,14.87
2018-12-13T00:30:24.421Z,15.57
2018-12-13T00:32:54.557Z,14.13
2018-12-13T00:35:24.500Z,13.93
2018-12-13T00:37:55.397Z,21.10
2018-12-13T00:40:25.297Z,15.37
2018-12-13T00:42:55.110Z,13.13
2018-12-13T00:45:25.058Z,17.07
2018-12-13T00:47:54.970Z,14.57
2018-12-13T00:50:24.952Z,14.03
2018-12-13T00:52:54.972Z,18.47
2018-12-13T00:55:24.804Z,18.73
2018-12-13T00:57:54.805Z,16.47
2018-12-13T01:00:24.647Z,15.07
2018-12-13T01:02:54.635Z,19.37
2018-12-13T01:05:24.581Z,17.10
2018-12-13T01:07:54.522Z,17.13
2018-12-13T01:10:24.497Z,18.20
2018-12-13T01:12:54.455Z,19.93
2018-12-13T01:15:26.493Z,15.97
2018-12-13T01:17:56.509Z,15.67
2018-12-13T01:20:26.508Z,21.53
2018-12-13T01:22:56.513Z,17.27
2018-12-13T01:25:26.456Z,16.30
2018-12-13T01:27:56.401Z,17.57
2018-12-13T01:30:26.392Z,20.10
2018-12-13T01:32:56.405Z,17.83
2018-12-13T01:35:26.404Z,16.37
2018-12-13T01:37:56.517Z,19.40
2018-12-13T01:40:26.452Z,17.27
2018-12-13T01:42:56.345Z,17.10
2018-12-13T01:45:26.262Z,18.67
2018-12-13T01:47:56.177Z,18.10
2018-12-13T01:50:26.089Z,20.57
2018-12-13T01:52:55.936Z,20.27
2018-12-13T01:55:25.825Z,18.53
2018-12-13T01:57:55.765Z,17.10
2018-12-13T02:00:25.757Z,20.13
2018-12-13T02:02:55.666Z,18.43
2018-12-13T02:05:25.618Z,19.93
2018-12-13T02:07:55.493Z,18.03
2018-12-13T02:10:25.447Z,19.53
2018-12-13T02:12:55.433Z,16.57
2018-12-13T02:15:25.345Z,18.23
2018-12-13T02:17:55.383Z,18.73
2018-12-13T02:20:25.281Z,18.33
2018-12-13T02:22:55.216Z,21.20
2018-12-13T02:25:25.208Z,21.10
2018-12-13T02:27:55.233Z,20.90
2018-12-13T02:30:25.253Z,18.73
2018-12-13T02:32:55.165Z,23.97
2018-12-13T02:35:25.076Z,20.97
2018-12-13T02:37:55.012Z,18.93
2018-12-13T02:40:25.005Z,17.57
2018-12-13T02:42:55.329Z,18.40
2018-12-13T02:45:25.146Z,20.33
2018-12-13T02:47:55.057Z,19.33
2018-12-13T02:50:25.001Z,16.87
2018-12-13T02:52:54.885Z,19.37
2018-12-13T02:55:24.904Z,19.97
2018-12-13T02:57:54.949Z,18.53
2018-12-13T03:00:24.876Z,18.67
2018-12-13T03:02:54.853Z,19.40
2018-12-13T03:05:24.670Z,17.87
2018-12-13T03:07:54.690Z,20.70
2018-12-13T03:10:24.525Z,19.27
2018-12-13T03:12:54.517Z,20.83
2018-12-13T03:15:24.462Z,20.43
2018-12-13T03:17:54.401Z,19.80
2018-12-13T03:20:24.430Z,15.40
2018-12-13T03:22:54.273Z,21.20
2018-12-13T03:25:24.194Z,17.97
2018-12-13T03:27:54.241Z,19.97
2018-12-13T03:30:24.190Z,21.30
2018-12-13T03:32:54.142Z,19.27
2018-12-13T03:35:23.957Z,21.50
2018-12-13T03:37:53.971Z,17.13
2018-12-13T03:40:23.788Z,16.37
2018-12-13T03:42:53.699Z,18.70
2018-12-13T03:45:23.677Z,16.30
2018-12-13T03:47:53.633Z,17.67
2018-12-13T03:50:23.545Z,17.43
2018-12-13T03:52:53.365Z,20.47
2018-12-13T03:55:23.279Z,19.20
2018-12-13T03:57:53.399Z,18.97
2018-12-13T04:00:23.223Z,18.53
2018-12-13T04:02:53.150Z,23.17
2018-12-13T04:05:23.046Z,20.77
2018-12-13T04:07:53.056Z,21.90
2018-12-13T04:10:22.995Z,19.27
2018-12-13T04:12:52.910Z,22.40
2018-12-13T04:15:22.902Z,19.50
2018-12-13T04:17:52.840Z,21.13
2018-12-13T04:20:22.829Z,19.53
2018-12-13T04:22:52.772Z,21.10
2018-12-13T04:25:22.765Z,20.40
2018-12-13T04:27:52.885Z,22.17
2018-12-13T04:30:22.667Z,23.77
2018-12-13T04:32:52.621Z,18.60
2018-12-13T04:35:22.499Z,18.80
2018-12-13T04:37:52.470Z,20.70
2018-12-13T04:40:22.498Z,19.83
2018-12-13T04:42:52.477Z,18.67
2018-12-13T04:45:22.397Z,22.73
2018-12-13T04:47:52.326Z,19.90
2018-12-13T04:50:22.225Z,22.67
2018-12-13T04:52:52.048Z,22.70
2018-12-13T04:55:21.958Z,22.70
2018-12-13T04:57:51.973Z,24.37
2018-12-13T05:00:21.808Z,24.50
2018-12-13T05:02:51.798Z,21.20
2018-12-13T05:05:21.609Z,19.30
2018-12-13T05:07:51.624Z,22.77
2018-12-13T05:10:32.146Z,23.60
2018-12-13T05:13:02.113Z,22.10
2018-12-13T05:15:32.059Z,20.47
2018-12-13T05:18:02.091Z,21.20
2018-12-13T05:20:32.026Z,22.43
2018-12-13T05:23:01.927Z,19.70
2018-12-13T05:25:31.885Z,21.37
2018-12-13T05:28:01.858Z,22.33
2018-12-13T05:30:31.774Z,17.53
2018-12-13T05:33:01.732Z,21.80
2018-12-13T05:35:31.649Z,23.67
2018-12-13T05:38:01.564Z,22.30
2018-12-13T05:40:31.583Z,18.20
2018-12-13T05:43:01.396Z,20.70
2018-12-13T05:45:31.309Z,23.87
2018-12-13T05:48:01.331Z,18.87
2018-12-13T05:50:31.175Z,17.83
2018-12-13T05:53:01.189Z,20.50
2018-12-13T05:55:31.072Z,21.83
2018-12-13T05:58:01.098Z,18.07
2018-12-13T06:00:30.961Z,18.23
2018-12-13T06:03:00.925Z,22.23
2018-12-13T06:05:30.861Z,22.37
2018-12-13T06:08:00.809Z,19.27
2018-12-13T06:10:30.798Z,21.60
2018-12-13T06:13:00.742Z,21.57
2018-12-13T06:15:30.697Z,20.20
2018-12-13T06:18:06.644Z,20.70
2018-12-13T06:20:32.747Z,20.87
2018-12-13T06:23:02.697Z,21.07
2018-12-13T06:25:32.542Z,22.70
2018-12-13T06:28:02.525Z,19.90
2018-12-13T06:30:32.577Z,20.00
2018-12-13T06:33:02.485Z,24.90
2018-12-13T06:35:32.682Z,22.77
2018-12-13T06:38:02.728Z,23.37
2018-12-13T06:40:32.626Z,23.87
2018-12-13T06:43:02.527Z,23.57
2018-12-13T06:45:32.579Z,21.77
2018-12-13T06:48:02.562Z,24.30
2018-12-13T06:50:32.508Z,23.60
2018-12-13T06:53:02.450Z,22.30
2018-12-13T06:55:32.440Z,24.93
2018-12-13T06:58:02.323Z,25.53
2018-12-13T07:00:32.236Z,27.63
2018-12-13T07:03:02.188Z,26.90
2018-12-13T07:05:32.131Z,29.93
2018-12-13T07:08:07.807Z,24.43
2018-12-13T07:10:35.031Z,39.07
2018-12-13T07:13:05.097Z,28.70
2018-12-13T07:15:34.906Z,29.40
2018-12-13T07:18:04.921Z,31.27
2018-12-13T07:20:34.869Z,26.93
2018-12-13T07:23:04.782Z,28.37
2018-12-13T07:25:34.772Z,26.90
2018-12-13T07:28:04.994Z,30.53
2018-12-13T07:30:34.806Z,30.23
2018-12-13T07:33:04.925Z,30.00
2018-12-13T07:35:34.945Z,29.50
2018-12-13T07:38:04.919Z,27.40
2018-12-13T07:40:34.876Z,32.13
2018-12-13T07:43:04.685Z,31.83
2018-12-13T07:45:34.614Z,31.23
2018-12-13T07:48:04.645Z,28.30
2018-12-13T07:50:34.637Z,32.63
2018-12-13T07:53:04.554Z,30.10
2018-12-13T07:55:34.478Z,29.70
2018-12-13T07:58:04.486Z,33.13
2018-12-13T08:00:34.429Z,30.33
2018-12-13T08:03:04.481Z,36.57
2018-12-13T08:05:34.551Z,32.23
2018-12-13T08:08:04.468Z,33.70
2018-12-13T08:10:34.261Z,27.90
2018-12-13T08:13:04.074Z,27.97
2018-12-13T08:15:33.992Z,29.07
2018-12-13T08:18:04.039Z,35.17
2018-12-13T08:20:33.924Z,28.77
2018-12-13T08:23:03.868Z,27.83
2018-12-13T08:25:33.761Z,35.87
2018-12-13T08:28:03.784Z,30.77
2018-12-13T08:30:33.717Z,35.23
2018-12-13T08:33:03.606Z,29.43
2018-12-13T08:35:33.546Z,28.90
2018-12-13T08:38:03.555Z,31.20
2018-12-13T08:40:33.577Z,30.87
2018-12-13T08:43:03.469Z,31.77
2018-12-13T08:45:33.385Z,30.73
2018-12-13T08:48:03.204Z,31.87
2018-12-13T08:50:33.109Z,31.43
2018-12-13T08:53:03.185Z,36.17
2018-12-13T08:55:33.091Z,30.43
2018-12-13T08:58:03.165Z,31.87
2018-12-13T09:00:32.994Z,30.90
2018-12-13T09:03:02.888Z,29.60
2018-12-13T09:05:32.860Z,31.40
2018-12-13T09:08:02.822Z,27.57
2018-12-13T09:10:32.760Z,29.30
2018-12-13T09:13:02.648Z,26.37
2018-12-13T09:15:32.693Z,31.30
2018-12-13T09:18:02.617Z,29.77
2018-12-13T09:20:32.629Z,26.60
2018-12-13T09:23:02.648Z,31.27
2018-12-13T09:25:32.590Z,27.70
2018-12-13T09:28:02.583Z,29.77
2018-12-13T09:30:32.775Z,27.27
2018-12-13T09:33:02.684Z,27.87
2018-12-13T09:35:32.808Z,26.33
2018-12-13T09:38:02.752Z,31.67
2018-12-13T09:40:32.742Z,30.87
2018-12-13T09:43:02.680Z,29.23
2018-12-13T09:45:32.602Z,30.70
2018-12-13T09:48:02.590Z,31.43
2018-12-13T09:50:32.529Z,30.60
2018-12-13T09:53:02.474Z,30.87
2018-12-13T09:55:32.461Z,26.33
2018-12-13T09:58:02.375Z,32.23
2018-12-13T10:00:32.368Z,30.23
2018-12-13T10:03:02.242Z,28.40
2018-12-13T10:05:32.196Z,28.40
2018-12-13T10:08:02.213Z,28.97
2018-12-13T10:10:32.024Z,29.93
2018-12-13T10:13:01.941Z,30.03
2018-12-13T10:15:32.214Z,30.07
2018-12-13T10:18:02.443Z,28.10
2018-12-13T10:20:32.405Z,29.97
2018-12-13T10:23:02.343Z,27.73
2018-12-13T10:25:32.290Z,33.17
2018-12-13T10:28:03.172Z,28.97
2018-12-13T10:30:33.086Z,32.17
2018-12-13T10:33:03.045Z,30.27
2018-12-13T10:35:32.962Z,32.70
2018-12-13T10:38:03.040Z,27.00
2018-12-13T10:40:32.877Z,26.73
2018-12-13T10:43:02.871Z,28.70
2018-12-13T10:45:32.814Z,31.73
2018-12-13T10:48:02.730Z,31.40
2018-12-13T10:50:32.666Z,28.70
2018-12-13T10:53:02.729Z,26.83
2018-12-13T10:55:32.645Z,25.67
2018-12-13T10:58:03.486Z,24.90
2018-12-13T11:00:40.417Z,26.43
2018-12-13T11:03:21.161Z,27.20
2018-12-13T11:05:51.103Z,30.90
2018-12-13T11:08:21.372Z,28.00
2018-12-13T11:10:51.311Z,26.50
2018-12-13T11:13:21.405Z,27.87
2018-12-13T11:15:51.317Z,27.40
2018-12-13T11:18:21.337Z,26.83
2018-12-13T11:20:51.168Z,26.33
2018-12-13T11:23:21.061Z,23.70
2018-12-13T11:25:50.900Z,27.47
2018-12-13T11:28:31.501Z,30.90
2018-12-13T11:31:01.376Z,29.67
2018-12-13T11:33:31.489Z,32.03
2018-12-13T11:36:01.317Z,26.10
2018-12-13T11:38:31.409Z,27.03
2018-12-13T11:41:01.348Z,26.43
2018-12-13T11:43:31.260Z,29.13
2018-12-13T11:46:01.257Z,30.30
2018-12-13T11:48:31.178Z,27.73
2018-12-13T11:51:01.085Z,26.17
2018-12-13T11:53:30.925Z,27.07
2018-12-13T11:56:00.914Z,27.37
2018-12-13T11:58:30.888Z,25.73
2018-12-13T12:01:00.844Z,28.40
2018-12-13T12:03:30.662Z,28.77
2018-12-13T12:06:00.580Z,24.37
2018-12-13T12:08:30.587Z,29.70
2018-12-13T12:11:00.504Z,25.80
2018-12-13T12:13:32.574Z,23.20
2018-12-13T12:16:12.787Z,23.20
2018-12-13T12:21:53.985Z,24.70
2018-12-13T12:24:29.477Z,25.07
2018-12-13T12:27:08.869Z,26.07
2018-12-13T12:29:40.832Z,26.47
2018-12-13T12:32:10.789Z,28.03
2018-12-13T12:34:40.609Z,27.43
2018-12-13T12:37:10.518Z,23.57
2018-12-13T12:39:40.462Z,26.07
2018-12-13T12:42:10.407Z,30.63
2018-12-13T12:44:42.063Z,28.07
2018-12-13T12:47:12.229Z,25.73
2018-12-13T12:49:42.148Z,25.97
2018-12-13T12:52:12.056Z,26.97
2018-12-13T12:54:41.974Z,27.17
2018-12-13T12:57:13.279Z,28.33
2018-12-13T12:59:43.441Z,28.47
2018-12-13T13:02:13.315Z,26.77
2018-12-13T13:04:43.293Z,28.37
2018-12-13T13:07:13.253Z,27.30
2018-12-13T13:09:43.306Z,38.87
2018-12-13T13:12:13.250Z,27.73
2018-12-13T13:14:43.237Z,26.67
2018-12-13T13:17:13.193Z,26.87
2018-12-13T13:19:43.285Z,25.57
2018-12-13T13:22:13.189Z,31.57
2018-12-13T13:24:43.029Z,27.40
2018-12-13T13:27:13.126Z,27.40
2018-12-13T13:29:43.041Z,28.63
2018-12-13T13:32:12.885Z,28.90
2018-12-13T13:34:42.900Z,26.37
2018-12-13T13:37:12.941Z,24.53
2018-12-13T13:39:42.933Z,24.73
2018-12-13T13:42:12.918Z,25.33
2018-12-13T13:44:43.119Z,28.07
2018-12-13T13:47:13.056Z,30.10
2018-12-13T13:49:42.870Z,27.30
2018-12-13T13:52:13.044Z,29.33
2018-12-13T13:54:42.900Z,30.20
2018-12-13T13:57:12.845Z,28.83
2018-12-13T13:59:42.865Z,28.07
2018-12-13T14:02:12.809Z,25.97
2018-12-13T14:04:42.791Z,26.33
2018-12-13T14:07:12.676Z,28.37
2018-12-13T14:09:42.620Z,27.17
2018-12-13T14:12:12.521Z,22.60
2018-12-13T14:14:42.479Z,26.03
2018-12-13T14:17:12.398Z,27.73
2018-12-13T14:19:42.359Z,28.17
2018-12-13T14:22:12.230Z,27.30
2018-12-13T14:24:42.191Z,29.93
2018-12-13T14:27:12.073Z,30.90
2018-12-13T14:29:42.020Z,28.80
2018-12-13T14:32:11.834Z,30.37
2018-12-13T14:34:42.397Z,27.87
2018-12-13T14:37:12.377Z,26.97
2018-12-13T14:39:44.543Z,30.50
2018-12-13T14:42:14.265Z,28.30
2018-12-13T14:44:44.205Z,29.73
2018-12-13T14:47:14.093Z,33.23
2018-12-13T14:49:44.005Z,29.37
2018-12-13T14:52:13.945Z,29.30
2018-12-13T14:54:43.890Z,26.30
2018-12-13T14:57:14.009Z,29.57
2018-12-13T14:59:47.101Z,29.37
2018-12-13T15:02:15.862Z,28.60
2018-12-13T15:04:45.851Z,28.57
2018-12-13T15:07:15.663Z,27.57
2018-12-13T15:09:50.797Z,29.67
2018-12-13T15:12:18.004Z,30.10
2018-12-13T15:14:47.804Z,30.77
2018-12-13T15:17:17.673Z,30.53
2018-12-13T15:19:47.617Z,31.70
2018-12-13T15:22:17.513Z,32.07
2018-12-13T15:24:47.444Z,30.23
2018-12-13T15:27:17.709Z,28.00
2018-12-13T15:29:47.661Z,30.83
2018-12-13T15:32:17.604Z,24.47
2018-12-13T15:34:47.518Z,29.23
2018-12-13T15:37:17.506Z,28.17
2018-12-13T15:39:47.375Z,27.93
2018-12-13T15:42:17.345Z,29.17
2018-12-13T15:44:47.349Z,28.93
2018-12-13T15:47:17.270Z,29.00
2018-12-13T15:49:47.498Z,33.47
2018-12-13T15:52:17.300Z,32.37
2018-12-13T15:54:47.220Z,32.43
2018-12-13T15:57:17.164Z,30.90
2018-12-13T15:59:47.080Z,28.43
2018-12-13T16:02:16.997Z,29.13
2018-12-13T16:04:46.877Z,31.13
2018-12-13T16:07:16.793Z,27.77
2018-12-13T16:09:46.613Z,26.13
2018-12-13T16:12:16.916Z,28.33
2018-12-13T16:14:46.880Z,26.73
2018-12-13T16:17:16.761Z,24.47
2018-12-13T16:19:46.674Z,30.60
2018-12-13T16:22:16.489Z,29.37
2018-12-13T16:24:46.644Z,33.17
2018-12-13T16:27:16.682Z,29.37
2018-12-13T16:29:46.602Z,31.00
2018-12-13T16:32:16.557Z,27.90
2018-12-13T16:34:46.368Z,29.67
2018-12-13T16:37:16.285Z,32.73
2018-12-13T16:39:46.110Z,28.33
2018-12-13T16:42:16.025Z,27.80
2018-12-13T16:44:45.892Z,28.57
2018-12-13T16:47:15.874Z,28.20
2018-12-13T16:49:45.898Z,31.43
2018-12-13T16:52:15.805Z,29.13
2018-12-13T16:54:45.722Z,29.40
2018-12-13T16:57:15.708Z,35.70
2018-12-13T16:59:45.658Z,32.20
2018-12-13T17:02:15.544Z,34.80
2018-12-13T17:04:45.481Z,31.47
2018-12-13T17:07:15.433Z,28.73
2018-12-13T17:09:45.389Z,29.63
2018-12-13T17:12:15.209Z,29.70
2018-12-13T17:14:45.377Z,32.90
2018-12-13T17:17:15.366Z,34.63
2018-12-13T17:19:45.261Z,34.20
2018-12-13T17:22:15.192Z,32.30
2018-12-13T17:24:45.082Z,29.80
2018-12-13T17:27:15.020Z,28.87
2018-12-13T17:29:45.175Z,31.23
2018-12-13T17:32:15.037Z,29.90
2018-12-13T17:34:44.977Z,33.57
2018-12-13T17:37:14.892Z,29.33
2018-12-13T17:39:44.909Z,30.60
2018-12-13T17:42:14.896Z,29.00
2018-12-13T17:44:44.969Z,31.73
2018-12-13T17:47:14.934Z,33.00
2018-12-13T17:49:44.740Z,31.10
2018-12-13T17:52:15.024Z,27.13
2018-12-13T17:54:45.596Z,28.23
2018-12-13T17:57:15.545Z,34.70
2018-12-13T17:59:45.460Z,30.97
2018-12-13T18:02:15.458Z,31.43
2018-12-13T18:04:45.272Z,29.37
2018-12-13T18:07:15.169Z,30.30
2018-12-13T18:09:45.021Z,32.93
2018-12-13T18:12:15.001Z,31.50
2018-12-13T18:14:44.968Z,32.67
2018-12-13T18:17:15.158Z,30.53
2018-12-13T18:19:45.154Z,32.13
2018-12-13T18:22:15.105Z,33.50
2018-12-13T18:24:45.085Z,32.40
2018-12-13T18:27:15.277Z,30.07
2018-12-13T18:29:45.357Z,29.30
2018-12-13T18:32:15.245Z,32.67
2018-12-13T18:34:45.184Z,31.27
2018-12-13T18:37:15.097Z,31.23
2018-12-13T18:39:44.989Z,35.67
2018-12-13T18:42:14.834Z,30.90
2018-12-13T18:44:44.827Z,37.10
2018-12-13T18:47:14.861Z,36.20
2018-12-13T18:49:44.755Z,35.47
2018-12-13T18:52:14.677Z,32.87
2018-12-13T18:54:44.481Z,35.70
2018-12-13T18:57:14.403Z,33.80
2018-12-13T18:59:44.237Z,32.30
2018-12-13T19:02:14.225Z,38.33
2018-12-13T19:04:44.052Z,35.97
2018-12-13T19:07:13.983Z,34.03
2018-12-13T19:09:43.970Z,31.90
2018-12-13T19:12:13.832Z,32.03
2018-12-13T19:14:43.797Z,34.07
2018-12-13T19:17:13.614Z,36.57
2018-12-13T19:19:43.548Z,33.27
2018-12-13T19:22:13.572Z,34.70
2018-12-13T19:24:43.516Z,34.90
2018-12-13T19:27:13.504Z,34.90
2018-12-13T19:29:43.393Z,32.43
2018-12-13T19:32:13.313Z,37.87
2018-12-13T19:34:43.119Z,33.90
2018-12-13T19:37:13.037Z,31.83
2018-12-13T19:39:42.978Z,32.77
2018-12-13T19:42:12.861Z,35.60
2018-12-13T19:44:42.812Z,34.83
2018-12-13T19:47:12.750Z,31.03
2018-12-13T19:49:43.120Z,36.30
2018-12-13T19:52:13.069Z,38.13
2018-12-13T19:54:43.011Z,36.10
2018-12-13T19:57:13.519Z,36.17
2018-12-13T19:59:44.202Z,37.57
2018-12-13T20:02:14.082Z,37.53
2018-12-13T20:04:44.034Z,37.83
2018-12-13T20:07:13.984Z,35.87
2018-12-13T20:09:43.924Z,35.13
2018-12-13T20:12:13.901Z,34.00
2018-12-13T20:14:43.964Z,32.97
2018-12-13T20:17:13.925Z,34.30
2018-12-13T20:19:43.897Z,30.63
2018-12-13T20:22:13.915Z,32.23
2018-12-13T20:24:44.002Z,32.53
2018-12-13T20:27:13.872Z,32.20
2018-12-13T20:29:43.991Z,31.87
2018-12-13T20:32:13.877Z,29.63
2018-12-13T20:34:44.032Z,34.37
2018-12-13T20:37:13.911Z,31.40
2018-12-13T20:39:43.743Z,35.80
2018-12-13T20:42:13.702Z,34.80
2018-12-13T20:44:43.661Z,32.17
2018-12-13T20:47:13.757Z,28.97
2018-12-13T20:49:43.778Z,31.37
2018-12-13T20:52:13.712Z,31.37
2018-12-13T20:54:43.588Z,33.67
2018-12-13T20:57:13.599Z,31.73
2018-12-13T20:59:43.532Z,32.20
2018-12-13T21:02:13.550Z,28.37
2018-12-13T21:04:43.562Z,33.17
2018-12-13T21:07:18.469Z,31.03
2018-12-13T21:09:48.593Z,32.80
2018-12-13T21:12:18.733Z,39.00
2018-12-13T21:14:48.782Z,28.60
2018-12-13T21:17:18.753Z,32.03
2018-12-13T21:19:48.821Z,32.93
2018-12-13T21:22:18.732Z,34.00
2018-12-13T21:24:49.012Z,36.23
2018-12-13T21:27:18.975Z,33.60
2018-12-13T21:29:48.959Z,33.20
2018-12-13T21:32:19.008Z,34.47
2018-12-13T21:34:48.884Z,34.90
2018-12-13T21:37:18.943Z,35.03
2018-12-13T21:39:48.803Z,33.93
2018-12-13T21:42:18.765Z,35.80
2018-12-13T21:44:48.680Z,40.23
2018-12-13T21:47:18.805Z,34.97
2018-12-13T21:49:48.817Z,33.43
2018-12-13T21:52:18.856Z,38.80
2018-12-13T21:54:48.729Z,29.77
2018-12-13T21:57:19.285Z,33.67
2018-12-13T21:59:49.196Z,34.90
2018-12-13T22:02:19.084Z,35.00
2018-12-13T22:04:49.201Z,35.60
2018-12-13T22:07:19.218Z,34.10
2018-12-13T22:09:49.233Z,38.30
2018-12-13T22:12:19.241Z,37.70
2018-12-13T22:14:49.151Z,36.43
2018-12-13T22:17:19.115Z,38.97
2018-12-13T22:19:49.182Z,34.93
2018-12-13T22:22:19.149Z,38.30
2018-12-13T22:24:49.119Z,34.40
2018-12-13T22:27:19.158Z,41.07
2018-12-13T22:29:49.065Z,38.30
2018-12-13T22:32:19.087Z,37.17
2018-12-13T22:34:49.388Z,39.60
2018-12-13T22:37:19.582Z,38.43
2018-12-13T22:39:49.521Z,34.27
2018-12-13T22:42:19.495Z,37.13
2018-12-13T22:44:49.454Z,37.93
2018-12-13T22:47:20.129Z,37.43
2018-12-13T22:49:50.075Z,40.07
2018-12-13T22:52:20.043Z,37.20
2018-12-13T22:54:49.966Z,44.77
2018-12-13T22:57:20.012Z,37.20
2018-12-13T22:59:50.021Z,41.97
2018-12-13T23:02:19.917Z,42.57
2018-12-13T23:04:49.901Z,39.00
2018-12-13T23:07:19.845Z,42.07
2018-12-13T23:09:49.761Z,44.13
2018-12-13T23:12:19.785Z,39.13
2018-12-13T23:14:50.029Z,38.97
2018-12-13T23:17:20.273Z,44.17
2018-12-13T23:19:50.272Z,43.07
2018-12-13T23:22:20.142Z,43.67
2018-12-13T23:24:50.040Z,41.53
2018-12-13T23:27:19.880Z,42.80
2018-12-13T23:29:49.885Z,39.80
2018-12-13T23:32:19.696Z,40.30
2018-12-13T23:34:49.606Z,44.90
2018-12-13T23:37:19.568Z,43.07
2018-12-13T23:39:49.429Z,43.87
2018-12-13T23:42:19.546Z,43.13
2018-12-13T23:44:49.422Z,44.43
2018-12-13T23:47:19.412Z,41.97
2018-12-13T23:49:49.497Z,43.43
2018-12-13T23:52:19.513Z,41.13
2018-12-13T23:54:49.461Z,43.83
2018-12-13T23:57:19.376Z,46.30
2018-12-13T23:59:49.268Z,45.00
